Time,TemperatureF,DewpointF,PressureIn,WindDirection,WindDirectionDegrees,WindSpeedMPH,WindSpeedGustMPH,Humidity,HourlyPrecipIn,Conditions,Clouds,dailyrainin,SoftwareType,DateUTC
2013-06-18 00:02:00,79.0,74.0,29.94,North,360,0.0,0.0,84,0.00,,,0.00,,2013-06-18 04:02:00,
2013-06-18 00:12:00,79.0,74.0,29.93,North,360,0.0,0.0,85,0.00,,,0.00,,2013-06-18 04:12:00,
2013-06-18 00:23:00,79.0,74.0,29.93,North,360,0.0,0.0,85,0.00,,,0.00,,2013-06-18 04:23:00,
2013-06-18 00:34:00,79.0,74.0,29.94,North,360,0.0,0.0,85,0.00,,,0.00,,2013-06-18 04:34:00,
2013-06-18 00:43:00,78.0,73.0,29.93,North,360,0.0,0.0,86,0.00,,,0.00,,2013-06-18 04:43:00,
2013-06-18 00:53:00,78.0,74.0,29.93,North,360,0.0,0.0,87,0.00,,,0.00,,2013-06-18 04:53:00,
2013-06-18 01:02:00,78.0,74.0,29.93,North,360,0.0,0.0,87,0.00,,,0.00,,2013-06-18 05:02:00,
2013-06-18 01:12:00,78.0,74.0,29.94,North,360,0.0,0.0,87,0.00,,,0.00,,2013-06-18 05:12:00,
2013-06-18 01:22:00,78.0,74.0,29.94,North,360,0.0,0.0,87,0.00,,,0.00,,2013-06-18 05:22:00,
2013-06-18 01:34:00,78.0,74.0,29.93,North,360,0.0,0.0,87,0.00,,,0.00,,2013-06-18 05:34:00,
2013-06-18 01:43:00,77.0,73.0,29.93,North,360,0.0,0.0,88,0.00,,,0.00,,2013-06-18 05:43:00,
2013-06-18 01:53:00,77.0,73.0,29.93,North,360,0.0,0.0,88,0.00,,,0.00,,2013-06-18 05:53:00,
2013-06-18 02:02:00,77.0,74.0,29.93,North,360,0.0,0.0,89,0.00,,,0.00,,2013-06-18 06:02:00,
2013-06-18 02:11:00,77.0,74.0,29.92,North,360,0.0,0.0,89,0.00,,,0.00,,2013-06-18 06:11:00,
2013-06-18 02:23:00,77.0,74.0,29.92,North,360,0.0,0.0,89,0.00,,,0.00,,2013-06-18 06:23:00,
2013-06-18 02:32:00,77.0,74.0,29.92,North,360,0.0,0.0,90,0.00,,,0.00,,2013-06-18 06:32:00,
2013-06-18 02:43:00,77.0,74.0,29.92,North,360,0.0,0.0,90,0.00,,,0.00,,2013-06-18 06:43:00,
2013-06-18 02:52:00,77.0,74.0,29.91,North,360,0.0,0.0,90,0.00,,,0.00,,2013-06-18 06:52:00,
2013-06-18 03:02:00,77.0,74.0,29.91,North,360,0.0,0.0,91,0.00,,,0.00,,2013-06-18 07:02:00,
2013-06-18 03:12:00,77.0,74.0,29.91,North,360,0.0,0.0,91,0.00,,,0.00,,2013-06-18 07:12:00,
2013-06-18 03:22:00,77.0,74.0,29.91,North,360,0.0,0.0,91,0.00,,,0.00,,2013-06-18 07:22:00,
2013-06-18 03:33:00,76.0,74.0,29.91,North,360,0.0,0.0,92,0.00,,,0.00,,2013-06-18 07:33:00,
2013-06-18 03:43:00,76.0,74.0,29.91,North,360,0.0,0.0,92,0.00,,,0.00,,2013-06-18 07:43:00,
2013-06-18 03:53:00,76.0,74.0,29.91,North,360,0.0,0.0,92,0.00,,,0.00,,2013-06-18 07:53:00,
2013-06-18 04:02:00,76.0,74.0,29.91,North,360,0.0,0.0,92,0.00,,,0.00,,2013-06-18 08:02:00,
2013-06-18 04:11:00,77.0,75.0,29.91,North,360,0.0,0.0,93,0.00,,,0.00,,2013-06-18 08:11:00,
2013-06-18 04:23:00,77.0,75.0,29.90,North,360,0.0,0.0,93,0.00,,,0.00,,2013-06-18 08:23:00,
2013-06-18 04:33:00,77.0,75.0,29.90,North,360,0.0,0.0,93,0.00,,,0.00,,2013-06-18 08:33:00,
2013-06-18 04:43:00,76.0,74.0,29.89,North,360,0.0,0.0,93,0.00,,,0.00,,2013-06-18 08:43:00,
2013-06-18 04:52:00,76.0,74.0,29.89,North,360,0.0,0.0,93,0.00,,,0.00,,2013-06-18 08:52:00,
2013-06-18 05:02:00,76.0,74.0,29.89,North,360,0.0,0.0,94,0.00,,,0.00,,2013-06-18 09:02:00,
2013-06-18 05:12:00,76.0,74.0,29.89,North,360,0.0,0.0,94,0.00,,,0.00,,2013-06-18 09:12:00,
2013-06-18 05:22:00,76.0,74.0,29.89,North,360,0.0,0.0,94,0.00,,,0.00,,2013-06-18 09:22:00,
2013-06-18 05:34:00,76.0,74.0,29.89,North,360,0.0,0.0,94,0.00,,,0.00,,2013-06-18 09:34:00,
2013-06-18 05:43:00,76.0,74.0,29.89,North,360,0.0,0.0,94,0.00,,,0.00,,2013-06-18 09:43:00,
2013-06-18 05:53:00,76.0,74.0,29.89,North,360,0.0,0.0,95,0.00,,,0.00,,2013-06-18 09:53:00,
2013-06-18 06:02:00,76.0,74.0,29.89,North,360,0.0,0.0,95,0.00,,,0.00,,2013-06-18 10:02:00,
2013-06-18 06:11:00,76.0,74.0,29.90,North,360,0.0,0.0,95,0.00,,,0.00,,2013-06-18 10:11:00,
2013-06-18 06:22:00,76.0,74.0,29.91,North,360,0.0,0.0,95,0.00,,,0.00,,2013-06-18 10:22:00,
2013-06-18 06:33:00,76.0,74.0,29.91,North,360,0.0,0.0,95,0.00,,,0.00,,2013-06-18 10:33:00,
2013-06-18 06:43:00,76.0,74.0,29.91,North,360,0.0,0.0,95,0.00,,,0.00,,2013-06-18 10:43:00,
2013-06-18 06:53:00,76.0,74.0,29.91,North,360,0.0,0.0,95,0.00,,,0.00,,2013-06-18 10:53:00,
2013-06-18 07:02:00,75.0,73.0,29.91,North,360,0.0,0.0,95,0.00,,,0.00,,2013-06-18 11:02:00,
2013-06-18 07:11:00,76.0,75.0,29.91,North,360,0.0,0.0,96,0.00,,,0.00,,2013-06-18 11:11:00,
2013-06-18 07:22:00,76.0,75.0,29.91,North,360,0.0,0.0,96,0.00,,,0.00,,2013-06-18 11:22:00,
2013-06-18 07:32:00,76.0,75.0,29.91,North,360,0.0,0.0,96,0.00,,,0.00,,2013-06-18 11:32:00,
2013-06-18 07:43:00,76.0,75.0,29.91,North,360,0.0,0.0,96,0.00,,,0.00,,2013-06-18 11:43:00,
2013-06-18 07:52:00,76.0,75.0,29.91,North,360,0.0,0.0,96,0.00,,,0.00,,2013-06-18 11:52:00,
2013-06-18 08:01:00,77.0,76.0,29.91,North,360,0.0,0.0,96,0.00,,,0.00,,2013-06-18 12:01:00,
2013-06-18 08:11:00,77.0,76.0,29.92,North,360,0.0,0.0,96,0.00,,,0.00,,2013-06-18 12:11:00,
2013-06-18 08:22:00,78.0,77.0,29.92,North,360,0.0,0.0,96,0.00,,,0.00,,2013-06-18 12:22:00,
2013-06-18 08:33:00,79.0,77.0,29.92,North,360,0.0,0.0,95,0.00,,,0.00,,2013-06-18 12:33:00,
2013-06-18 08:43:00,80.0,77.0,29.93,North,360,0.0,0.0,92,0.00,,,0.00,,2013-06-18 12:43:00,
2013-06-18 08:52:00,80.0,77.0,29.93,North,360,0.0,0.0,90,0.00,,,0.00,,2013-06-18 12:52:00,
2013-06-18 09:02:00,81.0,77.0,29.93,North,360,0.0,0.0,87,0.00,,,0.00,,2013-06-18 13:02:00,
2013-06-18 09:12:00,81.0,76.0,29.94,North,360,0.0,0.0,86,0.00,,,0.00,,2013-06-18 13:12:00,
2013-06-18 09:22:00,82.0,77.0,29.94,North,360,0.0,0.0,84,0.00,,,0.00,,2013-06-18 13:22:00,
2013-06-18 09:33:00,82.0,76.0,29.94,South,183,1.0,3.0,81,0.00,,,0.00,,2013-06-18 13:33:00,
2013-06-18 09:43:00,83.0,75.0,29.93,South,174,2.0,2.0,78,0.00,,,0.00,,2013-06-18 13:43:00,
2013-06-18 09:52:00,83.0,75.0,29.94,SSE,165,4.0,6.0,77,0.00,,,0.00,,2013-06-18 13:52:00,
2013-06-18 10:02:00,84.0,76.0,29.94,South,175,1.0,1.0,77,0.00,,,0.00,,2013-06-18 14:02:00,
2013-06-18 10:11:00,84.0,74.0,29.94,SSE,167,1.0,4.0,73,0.00,,,0.00,,2013-06-18 14:11:00,
2013-06-18 10:22:00,85.0,75.0,29.94,South,177,2.0,3.0,71,0.00,,,0.00,,2013-06-18 14:22:00,
2013-06-18 10:33:00,85.0,74.0,29.94,South,185,1.0,2.0,69,0.00,,,0.00,,2013-06-18 14:33:00,
2013-06-18 10:43:00,86.0,75.0,29.94,South,178,0.0,1.0,69,0.00,,,0.00,,2013-06-18 14:43:00,
2013-06-18 10:53:00,86.0,75.0,29.93,SSE,158,0.0,0.0,71,0.00,,,0.00,,2013-06-18 14:53:00,
2013-06-18 11:02:00,85.0,75.0,29.93,North,360,0.0,0.0,71,0.00,,,0.00,,2013-06-18 15:02:00,
2013-06-18 11:11:00,85.0,73.0,29.94,South,178,3.0,5.0,68,0.00,,,0.00,,2013-06-18 15:11:00,
2013-06-18 11:22:00,86.0,75.0,29.94,South,183,0.0,2.0,70,0.00,,,0.00,,2013-06-18 15:22:00,
2013-06-18 11:33:00,86.0,75.0,29.95,SSE,166,3.0,3.0,69,0.00,,,0.00,,2013-06-18 15:33:00,
2013-06-18 11:43:00,85.0,74.0,29.95,South,173,2.0,2.0,69,0.00,,,0.00,,2013-06-18 15:43:00,
2013-06-18 11:53:00,85.0,75.0,29.95,North,360,0.0,2.0,71,0.00,,,0.00,,2013-06-18 15:53:00,
2013-06-18 12:01:00,85.0,74.0,29.95,SSE,167,2.0,3.0,70,0.00,,,0.00,,2013-06-18 16:01:00,
2013-06-18 12:11:00,86.0,75.0,29.95,South,189,1.0,2.0,70,0.00,,,0.00,,2013-06-18 16:11:00,
2013-06-18 12:23:00,88.0,76.0,29.95,SSE,160,0.0,1.0,68,0.00,,,0.00,,2013-06-18 16:23:00,
2013-06-18 12:33:00,87.0,74.0,29.95,SSE,166,7.0,7.0,65,0.00,,,0.00,,2013-06-18 16:33:00,
2013-06-18 12:43:00,88.0,76.0,29.95,SE,144,1.0,4.0,67,0.00,,,0.00,,2013-06-18 16:43:00,
2013-06-18 12:53:00,89.0,76.0,29.95,South,185,1.0,1.0,65,0.00,,,0.00,,2013-06-18 16:53:00,
2013-06-18 13:02:00,88.0,75.0,29.95,North,360,0.0,1.0,65,0.00,,,0.00,,2013-06-18 17:02:00,
2013-06-18 13:12:00,88.0,75.0,29.95,North,360,0.0,0.0,66,0.00,,,0.00,,2013-06-18 17:12:00,
2013-06-18 13:22:00,88.0,75.0,29.94,SSW,208,0.0,1.0,66,0.00,,,0.00,,2013-06-18 17:22:00,
2013-06-18 13:33:00,87.0,75.0,29.94,SSE,165,2.0,2.0,67,0.00,,,0.00,,2013-06-18 17:33:00,
2013-06-18 13:43:00,88.0,76.0,29.93,NNW,348,0.0,2.0,67,0.00,,,0.00,,2013-06-18 17:43:00,
2013-06-18 13:53:00,89.0,76.0,29.93,East,81,0.0,1.0,66,0.00,,,0.00,,2013-06-18 17:53:00,
2013-06-18 14:02:00,89.0,75.0,29.93,South,171,3.0,3.0,64,0.00,,,0.00,,2013-06-18 18:02:00,
2013-06-18 14:11:00,88.0,74.0,29.93,South,169,4.0,4.0,64,0.00,,,0.00,,2013-06-18 18:11:00,
2013-06-18 14:22:00,88.0,74.0,29.93,SSE,155,0.0,1.0,64,0.00,,,0.00,,2013-06-18 18:22:00,
2013-06-18 14:33:00,89.0,75.0,29.93,South,172,5.0,5.0,64,0.00,,,0.00,,2013-06-18 18:33:00,
2013-06-18 14:42:00,89.0,75.0,29.92,SSE,160,3.0,3.0,64,0.00,,,0.00,,2013-06-18 18:42:00,
2013-06-18 14:53:00,88.0,76.0,29.92,SSE,166,0.0,0.0,67,0.00,,,0.00,,2013-06-18 18:53:00,
2013-06-18 15:02:00,89.0,75.0,29.92,SSE,151,2.0,3.0,64,0.00,,,0.00,,2013-06-18 19:02:00,
2013-06-18 15:12:00,89.0,76.0,29.92,South,173,0.0,3.0,65,0.00,,,0.00,,2013-06-18 19:12:00,
2013-06-18 15:22:00,89.0,74.0,29.91,SSE,148,2.0,2.0,61,0.00,,,0.00,,2013-06-18 19:22:00,
2013-06-18 15:33:00,88.0,75.0,29.91,NNE,26,0.0,4.0,66,0.00,,,0.00,,2013-06-18 19:33:00,
2013-06-18 15:43:00,88.0,75.0,29.91,North,360,0.0,2.0,65,0.00,,,0.00,,2013-06-18 19:43:00,
2013-06-18 15:52:00,88.0,76.0,29.91,NW,310,0.0,3.0,67,0.00,,,0.00,,2013-06-18 19:52:00,
2013-06-18 16:02:00,88.0,75.0,29.91,SSE,166,3.0,3.0,65,0.00,,,0.00,,2013-06-18 20:02:00,
2013-06-18 16:11:00,89.0,75.0,29.91,NE,36,1.0,1.0,63,0.00,,,0.00,,2013-06-18 20:11:00,
2013-06-18 16:23:00,88.0,74.0,29.91,WNW,300,0.0,0.0,64,0.00,,,0.00,,2013-06-18 20:23:00,
2013-06-18 16:33:00,88.0,75.0,29.89,SE,132,1.0,4.0,65,0.00,,,0.00,,2013-06-18 20:33:00,
2013-06-18 16:43:00,88.0,74.0,29.89,SSE,152,1.0,1.0,64,0.00,,,0.00,,2013-06-18 20:43:00,
2013-06-18 16:52:00,88.0,74.0,29.89,North,360,0.0,0.0,64,0.00,,,0.00,,2013-06-18 20:52:00,
2013-06-18 17:02:00,89.0,75.0,29.89,SSE,163,0.0,0.0,64,0.00,,,0.00,,2013-06-18 21:02:00,
2013-06-18 17:11:00,89.0,74.0,29.88,South,184,2.0,2.0,62,0.00,,,0.00,,2013-06-18 21:11:00,
2013-06-18 17:23:00,89.0,75.0,29.88,South,175,2.0,2.0,64,0.00,,,0.00,,2013-06-18 21:23:00,
2013-06-18 17:33:00,88.0,75.0,29.88,South,169,0.0,0.0,65,0.00,,,0.00,,2013-06-18 21:33:00,
2013-06-18 17:43:00,88.0,75.0,29.88,North,360,0.0,0.0,65,0.00,,,0.00,,2013-06-18 21:43:00,
2013-06-18 17:52:00,87.0,73.0,29.88,South,172,1.0,3.0,64,0.00,,,0.00,,2013-06-18 21:52:00,
2013-06-18 18:02:00,87.0,74.0,29.88,ESE,118,0.0,0.0,66,0.00,,,0.00,,2013-06-18 22:02:00,
2013-06-18 18:11:00,87.0,74.0,29.88,North,360,0.0,1.0,66,0.00,,,0.00,,2013-06-18 22:11:00,
2013-06-18 18:22:00,86.0,74.0,29.88,SSE,167,1.0,1.0,67,0.00,,,0.00,,2013-06-18 22:22:00,
2013-06-18 18:34:00,86.0,73.0,29.87,South,180,3.0,3.0,66,0.00,,,0.00,,2013-06-18 22:34:00,
2013-06-18 18:43:00,86.0,74.0,29.87,NNE,20,0.0,1.0,68,0.00,,,0.00,,2013-06-18 22:43:00,
2013-06-18 18:53:00,85.0,74.0,29.86,SSE,160,0.0,0.0,69,0.00,,,0.00,,2013-06-18 22:53:00,
2013-06-18 19:02:00,85.0,74.0,29.86,South,179,0.0,0.0,69,0.00,,,0.00,,2013-06-18 23:02:00,
2013-06-18 19:11:00,85.0,74.0,29.86,North,360,0.0,0.0,70,0.00,,,0.00,,2013-06-18 23:11:00,
2013-06-18 19:23:00,84.0,73.0,29.88,North,360,0.0,3.0,69,0.00,,,0.00,,2013-06-18 23:23:00,
2013-06-18 19:36:00,84.0,74.0,29.88,North,360,0.0,0.0,71,0.00,,,0.00,,2013-06-18 23:36:00,
2013-06-18 19:46:00,84.0,74.0,29.88,North,360,0.0,0.0,72,0.00,,,0.00,,2013-06-18 23:46:00,
2013-06-18 19:53:00,84.0,74.0,29.88,North,360,0.0,0.0,73,0.00,,,0.00,,2013-06-18 23:53:00,
2013-06-18 20:01:00,84.0,74.0,29.88,North,360,0.0,2.0,73,0.00,,,0.00,,2013-06-19 00:01:00,
2013-06-18 20:11:00,83.0,74.0,29.88,North,360,0.0,0.0,74,0.00,,,0.00,,2013-06-19 00:11:00,
2013-06-18 20:22:00,83.0,74.0,29.88,North,360,0.0,0.0,75,0.00,,,0.00,,2013-06-19 00:22:00,
2013-06-18 20:33:00,83.0,74.0,29.88,North,360,0.0,0.0,75,0.00,,,0.00,,2013-06-19 00:33:00,
2013-06-18 20:43:00,83.0,74.0,29.88,North,360,0.0,0.0,75,0.00,,,0.00,,2013-06-19 00:43:00,
2013-06-18 20:53:00,82.0,73.0,29.88,North,360,0.0,0.0,75,0.00,,,0.00,,2013-06-19 00:53:00,
2013-06-18 21:01:00,82.0,74.0,29.88,North,360,0.0,0.0,76,0.00,,,0.00,,2013-06-19 01:01:00,
2013-06-18 21:11:00,82.0,74.0,29.89,North,360,0.0,0.0,77,0.00,,,0.00,,2013-06-19 01:11:00,
2013-06-18 21:22:00,82.0,74.0,29.89,North,360,0.0,0.0,77,0.00,,,0.00,,2013-06-19 01:22:00,
2013-06-18 21:32:00,81.0,73.0,29.89,North,360,0.0,0.0,78,0.00,,,0.00,,2013-06-19 01:32:00,
2013-06-18 21:43:00,81.0,73.0,29.89,North,360,0.0,0.0,78,0.00,,,0.00,,2013-06-19 01:43:00,
2013-06-18 21:53:00,81.0,74.0,29.89,North,360,0.0,0.0,79,0.00,,,0.00,,2013-06-19 01:53:00,
2013-06-18 22:01:00,81.0,74.0,29.89,North,360,0.0,0.0,79,0.00,,,0.00,,2013-06-19 02:01:00,
2013-06-18 22:11:00,81.0,74.0,29.89,North,360,0.0,0.0,79,0.00,,,0.00,,2013-06-19 02:11:00,
2013-06-18 22:21:00,81.0,74.0,29.89,North,360,0.0,0.0,79,0.00,,,0.00,,2013-06-19 02:21:00,
2013-06-18 22:32:00,81.0,74.0,29.89,North,360,0.0,0.0,79,0.00,,,0.00,,2013-06-19 02:32:00,
2013-06-18 22:42:00,80.0,74.0,29.91,North,360,0.0,0.0,82,0.00,,,0.00,,2013-06-19 02:42:00,
2013-06-18 22:51:00,80.0,74.0,29.91,North,360,0.0,0.0,82,0.00,,,0.00,,2013-06-19 02:51:00,
2013-06-18 23:01:00,80.0,74.0,29.91,North,360,0.0,0.0,82,0.00,,,0.00,,2013-06-19 03:01:00,
2013-06-18 23:11:00,80.0,74.0,29.91,North,360,0.0,0.0,83,0.00,,,0.00,,2013-06-19 03:11:00,
2013-06-18 23:22:00,80.0,75.0,29.91,North,360,0.0,0.0,84,0.00,,,0.00,,2013-06-19 03:22:00,
2013-06-18 23:33:00,80.0,75.0,29.91,North,360,0.0,0.0,84,0.00,,,0.00,,2013-06-19 03:33:00,
2013-06-18 23:42:00,80.0,75.0,29.91,North,360,0.0,0.0,85,0.00,,,0.00,,2013-06-19 03:42:00,
2013-06-18 23:52:00,80.0,75.0,29.91,North,360,0.0,0.0,85,0.00,,,0.00,,2013-06-19 03:52:00,